createdAt,value
2019-03-01T00:02:21.440Z,1004.5
2019-03-01T00:03:33.741Z,1004.5
2019-03-01T00:04:45.907Z,1004.5
2019-03-01T00:05:58.114Z,1004.5
2019-03-01T00:07:10.447Z,1004.5
2019-03-01T00:08:22.478Z,1004.4
2019-03-01T00:09:34.619Z,1004.4
2019-03-01T00:10:46.809Z,1004.5
2019-03-01T00:14:23.541Z,1004.5
2019-03-01T00:15:35.702Z,1004.4
2019-03-01T00:18:00.115Z,1004.4
2019-03-01T00:19:12.236Z,1004.4
2019-03-01T00:20:24.373Z,1004.4
2019-03-01T00:21:36.682Z,1004.4
2019-03-01T00:22:48.961Z,1004.3
2019-03-01T00:26:25.347Z,1004.3
2019-03-01T00:27:37.671Z,1004.3
2019-03-01T00:30:02.141Z,1004.3
2019-03-01T00:31:14.195Z,1004.3
2019-03-01T00:32:26.329Z,1004.3
2019-03-01T00:33:38.528Z,1004.3
2019-03-01T00:34:50.807Z,1004.3
2019-03-01T00:36:02.988Z,1004.3
2019-03-01T00:37:15.168Z,1004.4
2019-03-01T00:38:27.309Z,1004.3
2019-03-01T00:39:39.514Z,1004.3
2019-03-01T00:42:04.073Z,1004.2
2019-03-01T00:43:16.309Z,1004.2
2019-03-01T00:44:28.329Z,1004.2
2019-03-01T00:45:40.552Z,1004.2
2019-03-01T00:46:52.671Z,1004.2
2019-03-01T00:50:29.463Z,1004.2
2019-03-01T00:51:41.560Z,1004.1
2019-03-01T00:54:05.952Z,1004.1
2019-03-01T00:55:18.117Z,1004.1
2019-03-01T00:56:30.322Z,1004.1
2019-03-01T00:58:54.630Z,1004.1
2019-03-01T01:03:43.513Z,1004.1
2019-03-01T01:07:20.067Z,1004
2019-03-01T01:08:32.257Z,1004
2019-03-01T01:10:56.592Z,1004
2019-03-01T01:12:08.866Z,1003.9
2019-03-01T01:15:45.430Z,1003.9
2019-03-01T01:18:09.883Z,1003.8
2019-03-01T01:19:22.222Z,1003.9
2019-03-01T01:20:34.123Z,1003.9
2019-03-01T01:21:46.364Z,1003.8
2019-03-01T01:22:58.563Z,1003.8
2019-03-01T01:24:10.694Z,1003.7
2019-03-01T01:27:47.441Z,1003.7
2019-03-01T01:30:12.075Z,1003.7
2019-03-01T01:31:23.922Z,1003.6
2019-03-01T01:32:36.103Z,1003.6
2019-03-01T01:33:48.307Z,1003.6
2019-03-01T01:35:00.450Z,1003.6
2019-03-01T01:36:12.813Z,1003.6
2019-03-01T01:38:37.135Z,1003.6
2019-03-01T01:39:49.305Z,1003.6
2019-03-01T01:41:01.593Z,1003.5
2019-03-01T01:42:13.680Z,1003.5
2019-03-01T01:43:25.997Z,1003.5
2019-03-01T01:44:38.070Z,1003.5
2019-03-01T01:47:02.437Z,1003.4
2019-03-01T01:48:14.627Z,1003.5
2019-03-01T01:50:38.927Z,1003.5
2019-03-01T01:51:51.198Z,1003.4
2019-03-01T01:54:15.584Z,1003.4
2019-03-01T01:55:27.926Z,1003.5
2019-03-01T01:56:39.993Z,1003.4
2019-03-01T01:59:04.370Z,1003.4
2019-03-01T02:00:16.590Z,1003.5
2019-03-01T02:02:41.125Z,1003.4
2019-03-01T02:03:53.252Z,1003.4
2019-03-01T02:05:05.299Z,1003.5
2019-03-01T02:06:17.578Z,1003.3
2019-03-01T02:07:29.743Z,1003.4
2019-03-01T02:08:41.841Z,1003.3
2019-03-01T02:09:54.242Z,1003.4
2019-03-01T02:11:06.293Z,1003.4
2019-03-01T02:12:18.420Z,1003.3
2019-03-01T02:14:42.912Z,1003.3
2019-03-01T02:15:55.005Z,1003.3
2019-03-01T02:17:07.271Z,1003.3
2019-03-01T02:18:19.625Z,1003.3
2019-03-01T02:19:31.737Z,1003.3
2019-03-01T02:20:43.974Z,1003.3
2019-03-01T02:21:56.040Z,1003.3
2019-03-01T02:23:08.170Z,1003.3
2019-03-01T02:24:20.363Z,1003.2
2019-03-01T02:26:44.844Z,1003.3
2019-03-01T02:27:56.938Z,1003.3
2019-03-01T02:29:09.224Z,1003.2
2019-03-01T02:30:21.442Z,1003.2
2019-03-01T02:31:33.520Z,1003.2
2019-03-01T02:32:45.783Z,1003.2
2019-03-01T02:33:57.979Z,1003.1
2019-03-01T02:35:10.107Z,1003.1
2019-03-01T02:36:22.400Z,1003.1
2019-03-01T02:39:59.360Z,1003.1
2019-03-01T02:41:11.165Z,1003.1
2019-03-01T02:42:23.377Z,1003
2019-03-01T02:43:35.462Z,1003
2019-03-01T02:44:47.651Z,1003
2019-03-01T02:45:59.858Z,1003
2019-03-01T02:47:12.138Z,1003
2019-03-01T02:48:24.325Z,1003
2019-03-01T02:50:48.701Z,1003
2019-03-01T02:52:00.894Z,1002.9
2019-03-01T02:53:13.058Z,1002.9
2019-03-01T02:54:25.225Z,1003
2019-03-01T02:56:49.672Z,1002.9
2019-03-01T02:58:01.785Z,1002.8
2019-03-01T02:59:13.999Z,1002.9
2019-03-01T03:00:26.290Z,1002.8
2019-03-01T03:02:50.614Z,1002.8
2019-03-01T03:04:02.835Z,1002.8
2019-03-01T03:05:15.028Z,1002.8
2019-03-01T03:06:27.263Z,1002.8
2019-03-01T03:07:39.469Z,1002.8
2019-03-01T03:08:51.611Z,1002.8
2019-03-01T03:11:16.001Z,1002.7
2019-03-01T03:12:28.916Z,1002.7
2019-03-01T03:14:52.732Z,1002.7
2019-03-01T03:16:04.687Z,1002.6
2019-03-01T03:17:16.960Z,1002.7
2019-03-01T03:18:29.313Z,1002.6
2019-03-01T03:19:41.283Z,1002.6
2019-03-01T03:20:53.586Z,1002.7
2019-03-01T03:23:17.928Z,1002.7
2019-03-01T03:24:30.111Z,1002.6
2019-03-01T03:26:58.147Z,1002.6
2019-03-01T03:28:09.834Z,1002.6
2019-03-01T03:29:18.928Z,1002.7
2019-03-01T03:30:31.172Z,1002.6
2019-03-01T03:32:55.438Z,1002.6
2019-03-01T03:34:07.600Z,1002.6
2019-03-01T03:35:19.782Z,1002.6
2019-03-01T03:36:32.137Z,1002.6
2019-03-01T03:40:08.568Z,1002.6
2019-03-01T03:41:20.859Z,1002.6
2019-03-01T03:42:33.052Z,1002.6
2019-03-01T03:44:57.327Z,1002.6
2019-03-01T03:46:09.535Z,1002.6
2019-03-01T03:47:21.718Z,1002.6
2019-03-01T03:48:33.989Z,1002.6
2019-03-01T03:50:58.420Z,1002.5
2019-03-01T03:52:10.580Z,1002.5
2019-03-01T03:53:22.763Z,1002.6
2019-03-01T03:54:35.039Z,1002.6
2019-03-01T03:55:47.084Z,1002.6
2019-03-01T03:56:59.340Z,1002.6
2019-03-01T03:58:11.645Z,1002.5
2019-03-01T03:59:23.658Z,1002.5
2019-03-01T04:00:35.860Z,1002.5
2019-03-01T04:03:00.377Z,1002.5
2019-03-01T04:04:12.628Z,1002.5
2019-03-01T04:05:24.727Z,1002.5
2019-03-01T04:06:36.916Z,1002.5
2019-03-01T04:07:49.028Z,1002.5
2019-03-01T04:09:01.317Z,1002.5
2019-03-01T04:10:13.411Z,1002.5
2019-03-01T04:11:25.592Z,1002.6
2019-03-01T04:15:02.383Z,1002.6
2019-03-01T04:16:14.445Z,1002.6
2019-03-01T04:17:26.657Z,1002.6
2019-03-01T04:18:38.870Z,1002.6
2019-03-01T04:19:51.162Z,1002.6
2019-03-01T04:21:03.245Z,1002.5
2019-03-01T04:22:15.454Z,1002.6
2019-03-01T04:23:27.628Z,1002.6
2019-03-01T04:24:39.725Z,1002.5
2019-03-01T04:27:04.170Z,1002.5
2019-03-01T04:28:16.359Z,1002.5
2019-03-01T04:29:28.580Z,1002.5
2019-03-01T04:30:40.820Z,1002.5
2019-03-01T04:31:52.894Z,1002.5
2019-03-01T04:33:05.084Z,1002.5
2019-03-01T04:34:17.415Z,1002.5
2019-03-01T04:35:29.541Z,1002.5
2019-03-01T04:39:06.096Z,1002.4
2019-03-01T04:40:18.352Z,1002.4
2019-03-01T04:42:42.809Z,1002.4
2019-03-01T04:43:54.880Z,1002.4
2019-03-01T04:45:07.100Z,1002.4
2019-03-01T04:46:19.226Z,1002.4
2019-03-01T04:47:31.412Z,1002.4
2019-03-01T04:48:43.689Z,1002.4
2019-03-01T04:51:08.072Z,1002.3
2019-03-01T04:52:20.246Z,1002.3
2019-03-01T04:53:32.539Z,1002.3
2019-03-01T04:54:44.713Z,1002.3
2019-03-01T04:57:09.015Z,1002.4
2019-03-01T04:58:21.226Z,1002.4
2019-03-01T04:59:33.422Z,1002.4
2019-03-01T05:00:45.531Z,1002.4
2019-03-01T05:03:10.012Z,1002.4
2019-03-01T05:04:22.338Z,1002.4
2019-03-01T05:06:46.686Z,1002.4
2019-03-01T05:07:58.786Z,1002.3
2019-03-01T05:09:10.887Z,1002.4
2019-03-01T05:10:23.092Z,1002.3
2019-03-01T05:11:37.341Z,1002.3
2019-03-01T05:12:48.763Z,1002.4
2019-03-01T05:15:11.935Z,1002.4
2019-03-01T05:16:24.110Z,1002.4
2019-03-01T05:17:36.339Z,1002.4
2019-03-01T05:18:48.631Z,1002.4
2019-03-01T05:21:12.910Z,1002.4
2019-03-01T05:22:25.097Z,1002.5
2019-03-01T05:23:37.600Z,1002.5
2019-03-01T05:24:49.631Z,1002.5
2019-03-01T05:27:13.860Z,1002.5
2019-03-01T05:28:26.107Z,1002.5
2019-03-01T05:29:38.185Z,1002.5
2019-03-01T05:30:50.554Z,1002.5
2019-03-01T05:32:02.642Z,1002.5
2019-03-01T05:33:14.884Z,1002.5
2019-03-01T05:35:39.265Z,1002.5
2019-03-01T05:36:51.436Z,1002.5
2019-03-01T05:39:15.860Z,1002.5
2019-03-01T05:40:28.081Z,1002.5
2019-03-01T05:42:52.519Z,1002.6
2019-03-01T05:44:04.499Z,1002.6
2019-03-01T05:45:16.936Z,1002.6
2019-03-01T05:46:28.971Z,1002.6
2019-03-01T05:47:41.175Z,1002.6
2019-03-01T05:51:17.743Z,1002.6
2019-03-01T05:52:29.960Z,1002.6
2019-03-01T05:53:42.118Z,1002.7
2019-03-01T05:54:54.510Z,1002.7
2019-03-01T05:57:18.744Z,1002.7
2019-03-01T05:58:30.865Z,1002.7
2019-03-01T05:59:43.048Z,1002.7
2019-03-01T06:04:31.880Z,1002.8
2019-03-01T06:05:43.998Z,1002.8
2019-03-01T06:06:56.253Z,1002.8
2019-03-01T06:09:20.580Z,1002.8
2019-03-01T06:10:32.774Z,1002.8
2019-03-01T06:11:44.965Z,1002.8
2019-03-01T06:12:57.289Z,1002.8
2019-03-01T06:15:21.641Z,1002.8
2019-03-01T06:16:33.730Z,1002.8
2019-03-01T06:17:45.925Z,1002.8
2019-03-01T06:18:58.215Z,1002.8
2019-03-01T06:20:10.381Z,1002.8
2019-03-01T06:21:22.529Z,1002.8
2019-03-01T06:23:46.897Z,1002.9
2019-03-01T06:24:59.163Z,1002.8
2019-03-01T06:28:35.786Z,1002.9
2019-03-01T06:31:00.247Z,1002.9
2019-03-01T06:33:24.531Z,1002.9
2019-03-01T06:34:36.788Z,1002.9
2019-03-01T06:35:48.928Z,1002.9
2019-03-01T06:40:37.682Z,1003
2019-03-01T06:41:49.805Z,1003
2019-03-01T06:43:02.159Z,1002.9
2019-03-01T06:45:26.387Z,1003
2019-03-01T06:47:50.870Z,1003.1
2019-03-01T06:49:03.033Z,1003
2019-03-01T06:51:27.688Z,1003.1
2019-03-01T06:52:39.785Z,1003.1
2019-03-01T06:55:04.055Z,1003.1
2019-03-01T06:57:28.360Z,1003.1
2019-03-01T06:58:40.622Z,1003.1
2019-03-01T06:59:52.716Z,1003.1
2019-03-01T07:03:29.392Z,1003.1
2019-03-01T07:04:41.680Z,1003.1
2019-03-01T07:05:53.679Z,1003.1
2019-03-01T07:07:06.564Z,1003.1
2019-03-01T07:08:18.136Z,1003.2
2019-03-01T07:09:30.256Z,1003.2
2019-03-01T07:10:42.682Z,1003.2
2019-03-01T07:11:54.747Z,1003.2
2019-03-01T07:13:06.905Z,1003.2
2019-03-01T07:16:43.449Z,1003.3
2019-03-01T07:17:55.636Z,1003.3
2019-03-01T07:19:07.934Z,1003.3
2019-03-01T07:20:20.183Z,1003.3
2019-03-01T07:21:32.206Z,1003.3
2019-03-01T07:23:56.613Z,1003.3
2019-03-01T07:27:33.247Z,1003.4
2019-03-01T07:28:45.442Z,1003.4
2019-03-01T07:31:09.800Z,1003.4
2019-03-01T07:32:22.067Z,1003.4
2019-03-01T07:33:34.204Z,1003.4
2019-03-01T07:34:46.404Z,1003.4
2019-03-01T07:35:58.544Z,1003.5
2019-03-01T07:37:10.839Z,1003.5
2019-03-01T07:39:35.241Z,1003.5
2019-03-01T07:40:47.583Z,1003.5
2019-03-01T07:41:59.630Z,1003.5
2019-03-01T07:43:11.821Z,1003.5
2019-03-01T07:44:24.000Z,1003.6
2019-03-01T07:45:36.111Z,1003.6
2019-03-01T07:48:00.479Z,1003.6
2019-03-01T07:49:12.775Z,1003.6
2019-03-01T07:52:49.403Z,1003.6
2019-03-01T07:54:01.430Z,1003.7
2019-03-01T07:55:13.737Z,1003.7
2019-03-01T07:56:25.946Z,1003.7
2019-03-01T07:57:38.000Z,1003.7
2019-03-01T08:00:02.473Z,1003.7
2019-03-01T08:01:14.684Z,1003.8
2019-03-01T08:04:51.336Z,1003.8
2019-03-01T08:07:15.836Z,1003.9
2019-03-01T08:08:27.758Z,1003.9
2019-03-01T08:09:39.964Z,1003.8
2019-03-01T08:10:52.263Z,1003.9
2019-03-01T08:12:04.440Z,1004
2019-03-01T08:15:41.018Z,1004
2019-03-01T08:16:53.338Z,1004
2019-03-01T08:19:17.710Z,1004
2019-03-01T08:22:54.112Z,1004
2019-03-01T08:24:06.291Z,1004
2019-03-01T08:25:18.490Z,1004.1
2019-03-01T08:27:42.863Z,1004.1
2019-03-01T08:28:55.178Z,1004.1
2019-03-01T08:30:07.269Z,1004.1
2019-03-01T08:31:19.608Z,1004.2
2019-03-01T08:32:31.689Z,1004.2
2019-03-01T08:33:43.849Z,1004.2
2019-03-01T08:36:08.248Z,1004.3
2019-03-01T08:37:20.408Z,1004.3
2019-03-01T08:39:44.853Z,1004.3
2019-03-01T08:40:57.106Z,1004.3
2019-03-01T08:42:09.295Z,1004.4
2019-03-01T08:43:21.528Z,1004.4
2019-03-01T08:44:33.744Z,1004.4
2019-03-01T08:45:45.850Z,1004.4
2019-03-01T08:46:58.092Z,1004.4
2019-03-01T08:48:10.194Z,1004.4
2019-03-01T08:51:46.885Z,1004.5
2019-03-01T08:52:58.989Z,1004.4
2019-03-01T08:54:11.177Z,1004.5
2019-03-01T08:55:23.427Z,1004.5
2019-03-01T08:57:47.812Z,1004.5
2019-03-01T09:17:03.060Z,1004.7
2019-03-01T09:19:27.333Z,1004.7
2019-03-01T09:20:39.387Z,1004.8
2019-03-01T09:21:51.668Z,1004.8
2019-03-01T09:23:03.981Z,1004.8
2019-03-01T09:24:15.946Z,1004.9
2019-03-01T09:27:52.565Z,1004.9
2019-03-01T09:29:04.843Z,1005
2019-03-01T09:30:17.044Z,1004.9
2019-03-01T09:31:29.302Z,1005
2019-03-01T09:32:41.507Z,1005
2019-03-01T09:33:53.543Z,1005.1
2019-03-01T09:35:05.705Z,1005.1
2019-03-01T09:36:17.911Z,1005.1
2019-03-01T09:39:54.488Z,1005.2
2019-03-01T09:41:06.768Z,1005.2
2019-03-01T09:42:18.865Z,1005.2
2019-03-01T09:43:31.234Z,1005.3
2019-03-01T09:44:43.350Z,1005.3
2019-03-01T09:45:55.439Z,1005.4
2019-03-01T09:48:19.830Z,1005.4
2019-03-01T09:49:32.104Z,1005.4
2019-03-01T09:51:56.557Z,1005.4
2019-03-01T09:53:08.699Z,1005.4
2019-03-01T09:55:33.137Z,1005.4
2019-03-01T09:56:45.300Z,1005.4
2019-03-01T09:57:57.401Z,1005.5
2019-03-01T09:59:09.759Z,1005.5
2019-03-01T10:00:21.809Z,1005.5
2019-03-01T10:03:58.390Z,1005.6
2019-03-01T10:05:10.642Z,1005.5
2019-03-01T10:06:22.890Z,1005.5
2019-03-01T10:07:35.103Z,1005.6
2019-03-01T10:09:59.310Z,1005.7
2019-03-01T10:12:23.784Z,1005.8
2019-03-01T10:17:12.662Z,1005.9
2019-03-01T10:18:24.662Z,1005.9
2019-03-01T10:19:36.974Z,1005.8
2019-03-01T10:22:01.385Z,1006
2019-03-01T10:23:13.578Z,1006
2019-03-01T10:24:25.647Z,1006
2019-03-01T10:25:37.840Z,1006
2019-03-01T10:28:02.366Z,1006
2019-03-01T10:29:14.616Z,1006.1
2019-03-01T10:31:38.885Z,1006
2019-03-01T10:32:51.024Z,1006.1
2019-03-01T10:34:03.206Z,1006
2019-03-01T10:35:15.491Z,1006
2019-03-01T10:36:27.669Z,1006
2019-03-01T10:40:04.345Z,1006
2019-03-01T10:41:16.421Z,1006
2019-03-01T10:43:40.948Z,1006
2019-03-01T10:46:05.148Z,1006.1
2019-03-01T10:48:29.546Z,1006.2
2019-03-01T10:49:41.829Z,1006.2
2019-03-01T10:53:18.431Z,1006.3
2019-03-01T10:54:30.602Z,1006.2
2019-03-01T10:55:42.786Z,1006.3
2019-03-01T10:58:07.166Z,1006.3
2019-03-01T10:59:19.421Z,1006.2
2019-03-01T11:00:31.602Z,1006.3
2019-03-01T11:01:44.247Z,1006.3
2019-03-01T11:04:08.193Z,1006.3
2019-03-01T11:05:20.355Z,1006.3
2019-03-01T11:07:44.842Z,1006.4
2019-03-01T11:08:57.011Z,1006.4
2019-03-01T11:10:09.161Z,1006.4
2019-03-01T11:11:21.348Z,1006.4
2019-03-01T11:12:33.472Z,1006.4
2019-03-01T11:16:10.035Z,1006.5
2019-03-01T11:17:22.323Z,1006.5
2019-03-01T11:18:34.477Z,1006.5
2019-03-01T11:19:46.666Z,1006.5
2019-03-01T11:22:10.989Z,1006.5
2019-03-01T11:23:23.253Z,1006.5
2019-03-01T11:24:35.406Z,1006.5
2019-03-01T11:29:24.300Z,1006.5
2019-03-01T11:30:36.431Z,1006.5
2019-03-01T11:31:48.688Z,1006.4
2019-03-01T11:34:13.034Z,1006.5
2019-03-01T11:36:37.414Z,1006.6
2019-03-01T11:37:49.530Z,1006.5
2019-03-01T11:40:13.993Z,1006.6
2019-03-01T11:41:26.266Z,1006.6
2019-03-01T11:43:50.625Z,1006.6
2019-03-01T11:45:02.815Z,1006.5
2019-03-01T11:46:14.939Z,1006.6
2019-03-01T11:48:39.285Z,1006.6
2019-03-01T11:49:51.490Z,1006.7
2019-03-01T11:52:15.896Z,1006.7
2019-03-01T11:53:28.859Z,1006.6
2019-03-01T11:55:52.596Z,1006.7
2019-03-01T11:58:16.886Z,1006.7
2019-03-01T11:59:29.088Z,1006.7
2019-03-01T12:00:41.254Z,1006.6
2019-03-01T12:01:53.555Z,1006.7
2019-03-01T12:05:30.130Z,1006.6
2019-03-01T12:06:42.407Z,1006.7
2019-03-01T12:07:54.640Z,1006.7
2019-03-01T12:09:06.815Z,1006.7
2019-03-01T12:10:18.908Z,1006.7
2019-03-01T12:12:43.202Z,1006.6
2019-03-01T12:16:19.844Z,1006.7
2019-03-01T12:17:32.129Z,1006.7
2019-03-01T12:19:56.424Z,1006.8
2019-03-01T12:21:08.646Z,1006.7
2019-03-01T12:22:20.841Z,1006.7
2019-03-01T12:24:45.292Z,1006.8
2019-03-01T12:28:22.028Z,1006.8
2019-03-01T12:29:33.991Z,1006.8
2019-03-01T12:30:46.414Z,1006.8
2019-03-01T12:31:58.440Z,1006.7
2019-03-01T12:33:10.594Z,1006.8
2019-03-01T12:34:22.709Z,1006.8
2019-03-01T12:35:35.035Z,1006.8
2019-03-01T12:36:47.187Z,1006.8
2019-03-01T12:41:36.013Z,1006.8
2019-03-01T12:42:48.077Z,1006.8
2019-03-01T12:44:00.327Z,1006.9
2019-03-01T12:45:12.551Z,1006.9
2019-03-01T12:46:25.222Z,1006.9
2019-03-01T12:48:49.137Z,1006.9
2019-03-01T12:50:01.296Z,1006.9
2019-03-01T12:53:37.965Z,1007
2019-03-01T12:56:02.292Z,1007.1
2019-03-01T12:57:14.427Z,1007.1
2019-03-01T12:58:26.700Z,1007.1
2019-03-01T12:59:38.957Z,1007.1
2019-03-01T13:00:51.003Z,1007.1
2019-03-01T13:04:27.608Z,1007.1
2019-03-01T13:05:39.893Z,1007.1
2019-03-01T13:08:04.985Z,1007.1
2019-03-01T13:10:28.632Z,1007.1
2019-03-01T13:11:40.926Z,1007.1
2019-03-01T13:12:52.972Z,1007.1
2019-03-01T13:14:05.355Z,1007.2
2019-03-01T13:16:29.610Z,1007.2
2019-03-01T13:17:42.310Z,1007.2
2019-03-01T13:18:53.929Z,1007.2
2019-03-01T13:20:06.264Z,1007.2
2019-03-01T13:21:18.972Z,1007.2
2019-03-01T13:22:30.523Z,1007.2
2019-03-01T13:24:55.052Z,1007.2
2019-03-01T13:26:07.181Z,1007.2
2019-03-01T13:29:43.886Z,1007.2
2019-03-01T13:30:55.885Z,1007.1
2019-03-01T13:33:20.468Z,1007.2
2019-03-01T13:34:32.557Z,1007.2
2019-03-01T13:35:44.825Z,1007.2
2019-03-01T13:36:56.931Z,1007.2
2019-03-01T13:40:33.453Z,1007.2
2019-03-01T13:41:45.743Z,1007.2
2019-03-01T13:42:57.894Z,1007.2
2019-03-01T13:44:10.146Z,1007.2
2019-03-01T13:45:22.237Z,1007.2
2019-03-01T13:46:34.419Z,1007.2
2019-03-01T13:48:58.993Z,1007.2
2019-03-01T13:53:47.752Z,1007.3
2019-03-01T13:54:59.792Z,1007.2
2019-03-01T13:56:12.081Z,1007.3
2019-03-01T13:58:36.844Z,1007.3
2019-03-01T13:59:48.601Z,1007.2
2019-03-01T14:01:00.891Z,1007.3
2019-03-01T14:02:12.992Z,1007.3
2019-03-01T14:04:37.474Z,1007.4
2019-03-01T14:05:49.651Z,1007.3
2019-03-01T14:08:14.003Z,1007.4
2019-03-01T14:09:26.225Z,1007.4
2019-03-01T14:10:38.339Z,1007.4
2019-03-01T14:11:50.642Z,1007.4
2019-03-01T14:13:02.749Z,1007.4
2019-03-01T14:16:39.317Z,1007.6
2019-03-01T14:17:51.617Z,1007.6
2019-03-01T14:20:16.049Z,1007.6
2019-03-01T14:21:28.197Z,1007.7
2019-03-01T14:22:40.286Z,1007.7
2019-03-01T14:23:52.571Z,1007.7
2019-03-01T14:25:04.670Z,1007.7
2019-03-01T14:26:16.997Z,1007.7
2019-03-01T14:28:41.475Z,1007.7
2019-03-01T14:29:53.638Z,1007.7
2019-03-01T14:31:05.669Z,1007.7
2019-03-01T14:32:17.931Z,1007.7
2019-03-01T14:34:42.289Z,1007.7
2019-03-01T14:37:07.154Z,1007.8
2019-03-01T14:41:58.229Z,1007.8
2019-03-01T14:44:20.014Z,1007.7
2019-03-01T14:45:31.995Z,1007.7
2019-03-01T14:46:44.209Z,1007.7
2019-03-01T14:47:56.494Z,1007.8
2019-03-01T14:49:08.650Z,1007.7
2019-03-01T14:53:57.427Z,1007.7
2019-03-01T14:55:09.659Z,1007.8
2019-03-01T14:58:46.408Z,1007.8
2019-03-01T15:01:10.618Z,1007.8
2019-03-01T15:02:22.815Z,1007.9
2019-03-01T15:04:47.382Z,1007.9
2019-03-01T15:05:59.327Z,1007.9
2019-03-01T15:07:11.591Z,1007.9
2019-03-01T15:08:23.906Z,1007.9
2019-03-01T15:10:48.133Z,1008
2019-03-01T15:13:12.567Z,1008.1
2019-03-01T15:14:24.687Z,1008
2019-03-01T15:18:01.418Z,1008.2
2019-03-01T15:20:28.340Z,1008.2
2019-03-01T15:21:39.191Z,1008.2
2019-03-01T15:22:50.050Z,1008.2
2019-03-01T15:24:02.459Z,1008.2
2019-03-01T15:25:14.543Z,1008.2
2019-03-01T15:28:51.110Z,1008.3
2019-03-01T15:30:03.351Z,1008.3
2019-03-01T15:31:15.588Z,1008.3
2019-03-01T15:32:27.798Z,1008.3
2019-03-01T15:34:52.098Z,1008.4
2019-03-01T15:36:04.204Z,1008.4
2019-03-01T15:37:16.480Z,1008.4
2019-03-01T15:38:28.801Z,1008.5
2019-03-01T15:42:05.381Z,1008.5
2019-03-01T15:43:17.561Z,1008.4
2019-03-01T15:44:29.669Z,1008.5
2019-03-01T15:45:41.880Z,1008.5
2019-03-01T15:46:54.000Z,1008.5
2019-03-01T15:48:06.333Z,1008.6
2019-03-01T15:49:18.370Z,1008.6
2019-03-01T15:50:30.548Z,1008.5
2019-03-01T15:54:07.316Z,1008.6
2019-03-01T15:56:31.770Z,1008.6
2019-03-01T15:57:43.835Z,1008.7
2019-03-01T15:58:55.981Z,1008.6
2019-03-01T16:00:08.265Z,1008.7
2019-03-01T16:01:20.366Z,1008.7
2019-03-01T16:02:32.529Z,1008.7
2019-03-01T16:04:57.005Z,1008.7
2019-03-01T16:06:09.230Z,1008.7
2019-03-01T16:08:34.066Z,1008.8
2019-03-01T16:10:57.981Z,1008.7
2019-03-01T16:12:10.144Z,1008.8
2019-03-01T16:13:22.327Z,1008.8
2019-03-01T16:14:34.669Z,1008.8
2019-03-01T16:18:11.276Z,1008.9
2019-03-01T16:19:23.327Z,1008.9
2019-03-01T16:20:35.555Z,1008.9
2019-03-01T16:21:47.815Z,1008.9
2019-03-01T16:22:59.887Z,1008.9
2019-03-01T16:25:24.329Z,1009
2019-03-01T16:26:36.501Z,1008.9
2019-03-01T16:30:13.103Z,1009
2019-03-01T16:32:37.498Z,1009
2019-03-01T16:33:49.770Z,1009.1
2019-03-01T16:35:01.910Z,1009.1
2019-03-01T16:36:14.234Z,1009.1
2019-03-01T16:37:26.194Z,1009.1
2019-03-01T16:41:02.958Z,1009.2
2019-03-01T16:42:15.089Z,1009.2
2019-03-01T16:43:27.254Z,1009.1
2019-03-01T16:44:39.504Z,1009.1
2019-03-01T16:47:03.892Z,1009.2
2019-03-01T16:48:16.169Z,1009.2
2019-03-01T16:49:28.159Z,1009.2
2019-03-01T16:50:40.600Z,1009.2
2019-03-01T16:54:17.235Z,1009.3
2019-03-01T16:55:29.158Z,1009.3
2019-03-01T16:56:41.687Z,1009.3
2019-03-01T16:57:53.883Z,1009.3
2019-03-01T16:59:06.005Z,1009.3
2019-03-01T17:01:30.111Z,1009.4
2019-03-01T17:02:42.465Z,1009.3
2019-03-01T17:05:06.854Z,1009.4
2019-03-01T17:06:18.882Z,1009.4
2019-03-01T17:08:43.375Z,1009.4
2019-03-01T17:09:55.654Z,1009.4
2019-03-01T17:11:07.728Z,1009.4
2019-03-01T17:12:20.015Z,1009.5
2019-03-01T17:13:32.214Z,1009.5
2019-03-01T17:17:08.799Z,1009.5
2019-03-01T17:18:21.032Z,1009.6
2019-03-01T17:20:45.378Z,1009.6
2019-03-01T17:23:09.656Z,1009.6
2019-03-01T17:24:21.918Z,1009.6
2019-03-01T17:25:34.090Z,1009.6
2019-03-01T17:30:22.870Z,1009.5
2019-03-01T17:31:35.124Z,1009.6
2019-03-01T17:32:47.501Z,1009.5
2019-03-01T17:33:59.506Z,1009.5
2019-03-01T17:35:11.653Z,1009.5
2019-03-01T17:37:36.053Z,1009.5
2019-03-01T17:42:24.826Z,1009.5
2019-03-01T17:44:49.299Z,1009.5
2019-03-01T17:46:01.451Z,1009.5
2019-03-01T17:47:13.536Z,1009.5
2019-03-01T17:49:37.938Z,1009.5
2019-03-01T17:53:14.607Z,1009.5
2019-03-01T17:54:26.842Z,1009.5
2019-03-01T17:55:39.021Z,1009.5
2019-03-01T17:56:51.211Z,1009.5
2019-03-01T17:59:15.561Z,1009.5
2019-03-01T18:01:39.888Z,1009.6
2019-03-01T18:02:52.199Z,1009.6
2019-03-01T18:06:28.763Z,1009.7
2019-03-01T18:07:41.131Z,1009.7
2019-03-01T18:08:53.147Z,1009.7
2019-03-01T18:10:05.499Z,1009.6
2019-03-01T18:11:17.559Z,1009.6
2019-03-01T18:12:29.831Z,1009.7
2019-03-01T18:13:41.997Z,1009.7
2019-03-01T18:14:54.244Z,1009.7
2019-03-01T18:17:18.570Z,1009.7
2019-03-01T18:18:30.692Z,1009.8
2019-03-01T18:20:55.195Z,1009.8
2019-03-01T18:22:07.308Z,1009.8
2019-03-01T18:23:19.470Z,1009.9
2019-03-01T18:25:43.944Z,1009.8
2019-03-01T18:29:20.445Z,1009.9
2019-03-01T18:30:32.848Z,1009.9
2019-03-01T18:31:44.893Z,1009.9
2019-03-01T18:32:57.425Z,1009.9
2019-03-01T18:35:21.399Z,1009.9
2019-03-01T18:36:33.697Z,1009.9
2019-03-01T18:37:46.025Z,1009.9
2019-03-01T18:38:58.389Z,1010
2019-03-01T18:42:34.827Z,1010
2019-03-01T18:44:59.181Z,1010
2019-03-01T18:46:11.248Z,1010
2019-03-01T18:47:23.596Z,1010
2019-03-01T18:48:35.861Z,1010
2019-03-01T18:49:47.757Z,1010
2019-03-01T18:51:00.283Z,1009.9
2019-03-01T18:54:36.528Z,1009.9
2019-03-01T18:55:49.056Z,1009.9
2019-03-01T18:57:01.010Z,1009.9
2019-03-01T18:58:13.460Z,1010
2019-03-01T18:59:25.670Z,1010
2019-03-01T19:00:37.647Z,1010
2019-03-01T19:01:49.706Z,1010
2019-03-01T19:05:26.417Z,1010
2019-03-01T19:06:38.520Z,1010
2019-03-01T19:07:50.997Z,1010.1
2019-03-01T19:09:03.205Z,1010.1
2019-03-01T19:11:27.459Z,1010.1
2019-03-01T19:12:39.571Z,1010.2
2019-03-01T19:13:51.666Z,1010.2
2019-03-01T19:15:04.108Z,1010.1
2019-03-01T19:18:40.476Z,1010.3
2019-03-01T19:19:52.757Z,1010.2
2019-03-01T19:21:04.883Z,1010.2
2019-03-01T19:22:17.087Z,1010.2
2019-03-01T19:23:29.185Z,1010.2
2019-03-01T19:25:53.576Z,1010.2
2019-03-01T19:27:05.916Z,1010.2
2019-03-01T19:29:30.271Z,1010.2
2019-03-01T19:30:42.385Z,1010.3
2019-03-01T19:33:06.943Z,1010.3
2019-03-01T19:34:19.132Z,1010.3
2019-03-01T19:35:31.325Z,1010.3
2019-03-01T19:36:43.502Z,1010.3
2019-03-01T19:37:56.217Z,1010.3
2019-03-01T19:41:32.280Z,1010.3
2019-03-01T19:42:44.293Z,1010.3
2019-03-01T19:43:56.733Z,1010.3
2019-03-01T19:45:08.753Z,1010.3
2019-03-01T19:47:33.198Z,1010.3
2019-03-01T19:48:45.328Z,1010.3
2019-03-01T19:49:57.584Z,1010.3
2019-03-01T19:51:09.747Z,1010.2
2019-03-01T19:54:46.415Z,1010.2
2019-03-01T19:55:58.639Z,1010.3
2019-03-01T19:57:10.779Z,1010.2
2019-03-01T19:59:35.093Z,1010.2
2019-03-01T20:00:47.329Z,1010.2
2019-03-01T20:01:59.428Z,1010.2
2019-03-01T20:03:11.803Z,1010.2
2019-03-01T20:05:36.204Z,1010.2
2019-03-01T20:06:48.283Z,1010.2
2019-03-01T20:09:12.769Z,1010.2
2019-03-01T20:10:24.950Z,1010.3
2019-03-01T20:11:36.968Z,1010.3
2019-03-01T20:12:49.253Z,1010.3
2019-03-01T20:14:01.470Z,1010.3
2019-03-01T20:17:38.122Z,1010.2
2019-03-01T20:18:50.138Z,1010.3
2019-03-01T20:20:02.674Z,1010.3
2019-03-01T20:21:14.672Z,1010.3
2019-03-01T20:23:38.987Z,1010.2
2019-03-01T20:24:51.244Z,1010.3
2019-03-01T20:26:03.432Z,1010.2
2019-03-01T20:27:15.573Z,1010.3
2019-03-01T20:29:40.046Z,1010.2
2019-03-01T20:30:52.068Z,1010.3
2019-03-01T20:33:16.627Z,1010.3
2019-03-01T20:35:40.842Z,1010.3
2019-03-01T20:36:53.108Z,1010.3
2019-03-01T20:38:05.237Z,1010.3
2019-03-01T20:39:17.658Z,1010.3
2019-03-01T20:41:41.903Z,1010.3
2019-03-01T20:42:54.047Z,1010.3
2019-03-01T20:45:18.468Z,1010.3
2019-03-01T20:46:30.682Z,1010.3
2019-03-01T20:47:42.793Z,1010.3
2019-03-01T20:48:55.065Z,1010.3
2019-03-01T20:50:07.167Z,1010.3
2019-03-01T20:53:43.819Z,1010.3
2019-03-01T20:54:55.939Z,1010.2
2019-03-01T20:56:08.332Z,1010.3
2019-03-01T20:57:20.446Z,1010.3
2019-03-01T20:58:32.631Z,1010.3
2019-03-01T20:59:44.719Z,1010.3
2019-03-01T21:02:09.147Z,1010.2
2019-03-01T21:06:58.085Z,1010.2
2019-03-01T21:08:10.127Z,1010.3
2019-03-01T21:09:22.405Z,1010.3
2019-03-01T21:10:34.657Z,1010.2
2019-03-01T21:11:46.727Z,1010.3
2019-03-01T21:12:58.939Z,1010.3
2019-03-01T21:14:11.040Z,1010.3
2019-03-01T21:17:47.685Z,1010.3
2019-03-01T21:18:59.892Z,1010.3